sensor_id;sensor_type;location;lat;lon;timestamp;P1;durP1;ratioP1;P2;durP2;ratioP2
21392;SDS011;10857;52.228;21.026;2022-10-16T07:42:09;25.38;;;18.00;;
21392;SDS011;10857;52.228;21.026;2022-10-16T07:44:42;26.23;;;17.67;;
21392;SDS011;10857;52.228;21.026;2022-10-16T07:47:09;23.05;;;17.02;;
21392;SDS011;10857;52.228;21.026;2022-10-16T07:49:36;27.40;;;17.85;;
21392;SDS011;10857;52.228;21.026;2022-10-16T07:52:03;26.33;;;17.63;;
21392;SDS011;10857;52.228;21.026;2022-10-16T07:54:30;26.70;;;17.90;;
21392;SDS011;10857;52.228;21.026;2022-10-16T07:56:57;24.08;;;18.00;;
21392;SDS011;10857;52.228;21.026;2022-10-16T07:59:24;21.77;;;16.92;;
21392;SDS011;10857;52.228;21.026;2022-10-16T08:01:51;21.90;;;16.50;;
21392;SDS011;10857;52.228;21.026;2022-10-16T08:04:18;22.90;;;16.73;;
21392;SDS011;10857;52.228;21.026;2022-10-16T08:06:45;23.20;;;17.20;;
21392;SDS011;10857;52.228;21.026;2022-10-16T08:09:12;22.67;;;16.70;;
21392;SDS011;10857;52.228;21.026;2022-10-16T08:11:39;25.30;;;16.35;;
21392;SDS011;10857;52.228;21.026;2022-10-16T08:14:06;23.95;;;16.00;;
21392;SDS011;10857;52.228;21.026;2022-10-16T08:16:33;24.40;;;15.43;;
21392;SDS011;10857;52.228;21.026;2022-10-16T08:19:00;23.38;;;16.15;;
21392;SDS011;10857;52.228;21.026;2022-10-16T08:21:27;26.15;;;15.98;;
21392;SDS011;10857;52.228;21.026;2022-10-16T08:23:53;23.63;;;15.70;;
21392;SDS011;10857;52.228;21.026;2022-10-16T08:26:23;25.73;;;15.75;;
21392;SDS011;10857;52.228;21.026;2022-10-16T08:28:50;23.70;;;15.57;;
21392;SDS011;10857;52.228;21.026;2022-10-16T08:31:20;23.52;;;15.43;;
21392;SDS011;10857;52.228;21.026;2022-10-16T08:33:47;23.08;;;16.17;;
21392;SDS011;10857;52.228;21.026;2022-10-16T08:36:14;22.25;;;14.63;;
21392;SDS011;10857;52.228;21.026;2022-10-16T08:38:42;24.48;;;15.52;;
21392;SDS011;10857;52.228;21.026;2022-10-16T08:43:50;22.52;;;15.93;;
21392;SDS011;10857;52.228;21.026;2022-10-16T08:49:16;22.00;;;15.70;;
21392;SDS011;10857;52.228;21.026;2022-10-16T08:51:43;24.67;;;15.23;;
21392;SDS011;10857;52.228;21.026;2022-10-16T08:54:21;23.40;;;15.52;;
21392;SDS011;10857;52.228;21.026;2022-10-16T08:57:00;20.60;;;15.50;;
21392;SDS011;10857;52.228;21.026;2022-10-16T08:59:35;25.90;;;15.68;;
21392;SDS011;10857;52.228;21.026;2022-10-16T09:02:03;22.67;;;14.82;;
21392;SDS011;10857;52.228;21.026;2022-10-16T09:04:55;19.27;;;14.73;;
21392;SDS011;10857;52.228;21.026;2022-10-16T09:07:32;26.77;;;16.17;;
21392;SDS011;10857;52.228;21.026;2022-10-16T09:13:11;19.55;;;14.63;;
21392;SDS011;10857;52.228;21.026;2022-10-16T09:15:55;22.17;;;14.98;;
21392;SDS011;10857;52.228;21.026;2022-10-16T09:18:50;20.42;;;14.48;;
21392;SDS011;10857;52.228;21.026;2022-10-16T09:21:37;21.10;;;14.82;;
21392;SDS011;10857;52.228;21.026;2022-10-16T09:24:11;19.30;;;14.15;;
21392;SDS011;10857;52.228;21.026;2022-10-16T09:26:45;21.98;;;14.90;;
21392;SDS011;10857;52.228;21.026;2022-10-16T09:29:13;18.63;;;14.05;;
21392;SDS011;10857;52.228;21.026;2022-10-16T09:31:42;21.30;;;14.48;;
21392;SDS011;10857;52.228;21.026;2022-10-16T09:34:32;18.90;;;13.90;;
21392;SDS011;10857;52.228;21.026;2022-10-16T09:36:59;19.08;;;14.45;;
21392;SDS011;10857;52.228;21.026;2022-10-16T09:39:26;19.40;;;14.07;;
21392;SDS011;10857;52.228;21.026;2022-10-16T09:41:53;21.27;;;14.18;;
21392;SDS011;10857;52.228;21.026;2022-10-16T09:44:28;20.50;;;13.80;;
21392;SDS011;10857;52.228;21.026;2022-10-16T09:47:16;20.25;;;13.85;;
21392;SDS011;10857;52.228;21.026;2022-10-16T09:49:56;18.38;;;14.52;;
21392;SDS011;10857;52.228;21.026;2022-10-16T09:52:28;22.27;;;14.30;;
21392;SDS011;10857;52.228;21.026;2022-10-16T09:54:56;20.23;;;14.13;;
21392;SDS011;10857;52.228;21.026;2022-10-16T09:57:28;19.95;;;14.25;;
21392;SDS011;10857;52.228;21.026;2022-10-16T09:59:58;20.30;;;14.15;;
21392;SDS011;10857;52.228;21.026;2022-10-16T10:02:31;19.80;;;13.75;;
21392;SDS011;10857;52.228;21.026;2022-10-16T10:05:02;18.15;;;13.98;;
21392;SDS011;10857;52.228;21.026;2022-10-16T10:07:32;18.13;;;13.57;;
21392;SDS011;10857;52.228;21.026;2022-10-16T10:10:05;19.08;;;14.20;;
21392;SDS011;10857;52.228;21.026;2022-10-16T10:12:45;21.77;;;13.90;;
21392;SDS011;10857;52.228;21.026;2022-10-16T10:15:13;17.73;;;13.52;;
21392;SDS011;10857;52.228;21.026;2022-10-16T10:17:48;23.67;;;14.80;;
21392;SDS011;10857;52.228;21.026;2022-10-16T10:20:25;19.83;;;14.32;;
21392;SDS011;10857;52.228;21.026;2022-10-16T10:22:54;20.13;;;13.60;;
21392;SDS011;10857;52.228;21.026;2022-10-16T10:28:26;19.45;;;13.75;;
21392;SDS011;10857;52.228;21.026;2022-10-16T10:31:25;16.27;;;13.20;;
21392;SDS011;10857;52.228;21.026;2022-10-16T10:37:02;18.45;;;13.20;;
21392;SDS011;10857;52.228;21.026;2022-10-16T10:39:49;17.92;;;13.05;;
21392;SDS011;10857;52.228;21.026;2022-10-16T10:42:41;20.00;;;13.38;;
21392;SDS011;10857;52.228;21.026;2022-10-16T10:45:16;16.65;;;13.18;;
21392;SDS011;10857;52.228;21.026;2022-10-16T10:48:02;17.65;;;13.32;;
21392;SDS011;10857;52.228;21.026;2022-10-16T10:50:50;19.55;;;13.40;;
21392;SDS011;10857;52.228;21.026;2022-10-16T10:56:22;17.63;;;13.40;;
21392;SDS011;10857;52.228;21.026;2022-10-16T10:59:31;18.73;;;12.95;;
21392;SDS011;10857;52.228;21.026;2022-10-16T11:02:31;19.85;;;12.95;;
21392;SDS011;10857;52.228;21.026;2022-10-16T11:05:24;19.15;;;13.05;;
21392;SDS011;10857;52.228;21.026;2022-10-16T11:07:59;19.80;;;13.13;;
21392;SDS011;10857;52.228;21.026;2022-10-16T11:13:32;19.58;;;13.43;;
21392;SDS011;10857;52.228;21.026;2022-10-16T11:21:44;20.45;;;13.77;;
21392;SDS011;10857;52.228;21.026;2022-10-16T11:24:19;19.23;;;13.32;;
21392;SDS011;10857;52.228;21.026;2022-10-16T11:26:50;18.70;;;13.40;;
21392;SDS011;10857;52.228;21.026;2022-10-16T11:29:22;15.15;;;12.80;;
21392;SDS011;10857;52.228;21.026;2022-10-16T11:31:54;15.63;;;12.52;;
21392;SDS011;10857;52.228;21.026;2022-10-16T11:34:37;17.27;;;12.70;;
21392;SDS011;10857;52.228;21.026;2022-10-16T11:37:12;15.02;;;12.02;;
21392;SDS011;10857;52.228;21.026;2022-10-16T11:39:45;17.88;;;12.35;;
21392;SDS011;10857;52.228;21.026;2022-10-16T11:42:16;17.33;;;12.70;;
21392;SDS011;10857;52.228;21.026;2022-10-16T11:45:03;17.65;;;11.93;;
21392;SDS011;10857;52.228;21.026;2022-10-16T11:47:44;16.85;;;12.18;;
21392;SDS011;10857;52.228;21.026;2022-10-16T11:50:50;15.50;;;12.48;;
21392;SDS011;10857;52.228;21.026;2022-10-16T11:56:11;20.17;;;12.52;;
21392;SDS011;10857;52.228;21.026;2022-10-16T12:07:10;14.93;;;11.45;;
21392;SDS011;10857;52.228;21.026;2022-10-16T12:09:41;15.02;;;12.00;;
21392;SDS011;10857;52.228;21.026;2022-10-16T12:12:28;22.85;;;12.70;;
21392;SDS011;10857;52.228;21.026;2022-10-16T12:17:47;36.38;;;14.15;;
21392;SDS011;10857;52.228;21.026;2022-10-16T12:25:31;28.88;;;15.00;;
21392;SDS011;10857;52.228;21.026;2022-10-16T12:28:04;20.80;;;13.23;;
21392;SDS011;10857;52.228;21.026;2022-10-16T12:30:43;22.45;;;13.27;;
21392;SDS011;10857;52.228;21.026;2022-10-16T12:33:24;18.75;;;12.95;;
21392;SDS011;10857;52.228;21.026;2022-10-16T12:35:53;20.30;;;14.25;;
21392;SDS011;10857;52.228;21.026;2022-10-16T12:41:07;17.80;;;12.65;;
21392;SDS011;10857;52.228;21.026;2022-10-16T12:43:36;16.80;;;12.30;;
21392;SDS011;10857;52.228;21.026;2022-10-16T12:48:41;15.27;;;11.90;;
21392;SDS011;10857;52.228;21.026;2022-10-16T13:05:24;16.00;;;12.50;;
21392;SDS011;10857;52.228;21.026;2022-10-16T13:19:04;14.10;;;11.63;;
21392;SDS011;10857;52.228;21.026;2022-10-16T13:27:05;18.27;;;12.20;;
21392;SDS011;10857;52.228;21.026;2022-10-16T13:29:41;16.02;;;11.82;;
21392;SDS011;10857;52.228;21.026;2022-10-16T13:32:09;20.48;;;12.30;;
21392;SDS011;10857;52.228;21.026;2022-10-16T13:34:45;17.98;;;12.20;;
21392;SDS011;10857;52.228;21.026;2022-10-16T13:37:18;16.83;;;11.82;;
21392;SDS011;10857;52.228;21.026;2022-10-16T13:39:48;16.65;;;11.77;;
21392;SDS011;10857;52.228;21.026;2022-10-16T13:44:54;18.02;;;11.15;;
21392;SDS011;10857;52.228;21.026;2022-10-16T13:47:23;17.08;;;11.80;;
21392;SDS011;10857;52.228;21.026;2022-10-16T13:52:33;15.60;;;11.07;;
21392;SDS011;10857;52.228;21.026;2022-10-16T13:55:00;17.60;;;10.80;;
21392;SDS011;10857;52.228;21.026;2022-10-16T13:57:28;15.07;;;11.30;;
21392;SDS011;10857;52.228;21.026;2022-10-16T13:59:54;15.38;;;11.02;;
21392;SDS011;10857;52.228;21.026;2022-10-16T14:02:24;16.63;;;10.95;;
21392;SDS011;10857;52.228;21.026;2022-10-16T14:04:57;14.35;;;10.77;;
21392;SDS011;10857;52.228;21.026;2022-10-16T14:07:28;15.93;;;11.65;;
21392;SDS011;10857;52.228;21.026;2022-10-16T14:10:01;15.77;;;11.38;;
21392;SDS011;10857;52.228;21.026;2022-10-16T14:12:31;16.50;;;10.60;;
21392;SDS011;10857;52.228;21.026;2022-10-16T14:14:59;17.52;;;10.98;;
21392;SDS011;10857;52.228;21.026;2022-10-16T14:17:27;18.48;;;11.00;;
21392;SDS011;10857;52.228;21.026;2022-10-16T14:19:58;17.55;;;11.02;;
21392;SDS011;10857;52.228;21.026;2022-10-16T14:22:40;24.33;;;10.95;;
21392;SDS011;10857;52.228;21.026;2022-10-16T14:30:52;19.80;;;11.25;;
21392;SDS011;10857;52.228;21.026;2022-10-16T14:36:12;15.82;;;11.57;;
21392;SDS011;10857;52.228;21.026;2022-10-16T14:38:42;19.80;;;12.38;;
21392;SDS011;10857;52.228;21.026;2022-10-16T14:41:15;17.63;;;12.13;;
21392;SDS011;10857;52.228;21.026;2022-10-16T14:43:49;19.73;;;12.15;;
21392;SDS011;10857;52.228;21.026;2022-10-16T14:46:19;17.50;;;12.18;;
21392;SDS011;10857;52.228;21.026;2022-10-16T14:48:49;15.23;;;11.63;;
21392;SDS011;10857;52.228;21.026;2022-10-16T14:51:17;19.05;;;12.18;;
21392;SDS011;10857;52.228;21.026;2022-10-16T14:53:45;16.40;;;12.38;;
21392;SDS011;10857;52.228;21.026;2022-10-16T14:56:35;20.05;;;12.07;;
21392;SDS011;10857;52.228;21.026;2022-10-16T14:59:10;16.42;;;11.60;;
21392;SDS011;10857;52.228;21.026;2022-10-16T15:01:45;17.70;;;11.70;;
21392;SDS011;10857;52.228;21.026;2022-10-16T15:04:12;16.92;;;11.57;;
21392;SDS011;10857;52.228;21.026;2022-10-16T15:06:40;16.75;;;11.40;;
21392;SDS011;10857;52.228;21.026;2022-10-16T15:09:07;17.73;;;12.27;;
21392;SDS011;10857;52.228;21.026;2022-10-16T15:11:34;18.75;;;12.90;;
21392;SDS011;10857;52.228;21.026;2022-10-16T15:14:02;15.77;;;12.07;;
21392;SDS011;10857;52.228;21.026;2022-10-16T15:16:30;17.70;;;11.65;;
21392;SDS011;10857;52.228;21.026;2022-10-16T15:18:58;18.38;;;12.23;;
21392;SDS011;10857;52.228;21.026;2022-10-16T15:21:25;17.05;;;12.20;;
21392;SDS011;10857;52.228;21.026;2022-10-16T15:23:54;18.92;;;12.02;;
21392;SDS011;10857;52.228;21.026;2022-10-16T15:26:23;18.35;;;11.75;;
21392;SDS011;10857;52.228;21.026;2022-10-16T15:28:51;18.30;;;12.07;;
21392;SDS011;10857;52.228;21.026;2022-10-16T15:31:19;16.42;;;12.02;;
21392;SDS011;10857;52.228;21.026;2022-10-16T15:33:51;17.08;;;12.23;;
21392;SDS011;10857;52.228;21.026;2022-10-16T15:36:25;17.48;;;12.48;;
21392;SDS011;10857;52.228;21.026;2022-10-16T15:38:54;16.27;;;12.25;;
21392;SDS011;10857;52.228;21.026;2022-10-16T15:41:21;15.88;;;12.25;;
21392;SDS011;10857;52.228;21.026;2022-10-16T15:43:48;17.08;;;12.25;;
21392;SDS011;10857;52.228;21.026;2022-10-16T15:46:20;19.10;;;12.63;;
21392;SDS011;10857;52.228;21.026;2022-10-16T15:48:48;16.15;;;11.95;;
21392;SDS011;10857;52.228;21.026;2022-10-16T15:51:17;16.08;;;12.65;;
21392;SDS011;10857;52.228;21.026;2022-10-16T15:53:44;19.65;;;12.40;;
21392;SDS011;10857;52.228;21.026;2022-10-16T15:56:13;18.38;;;12.45;;
21392;SDS011;10857;52.228;21.026;2022-10-16T15:58:41;16.73;;;12.88;;
21392;SDS011;10857;52.228;21.026;2022-10-16T16:01:08;18.17;;;12.68;;
21392;SDS011;10857;52.228;21.026;2022-10-16T16:03:37;20.63;;;12.13;;
21392;SDS011;10857;52.228;21.026;2022-10-16T16:06:07;16.02;;;12.15;;
21392;SDS011;10857;52.228;21.026;2022-10-16T16:08:36;19.17;;;13.10;;
21392;SDS011;10857;52.228;21.026;2022-10-16T16:11:05;21.20;;;12.93;;
21392;SDS011;10857;52.228;21.026;2022-10-16T16:13:36;18.92;;;12.60;;
21392;SDS011;10857;52.228;21.026;2022-10-16T16:16:05;22.17;;;12.73;;
21392;SDS011;10857;52.228;21.026;2022-10-16T16:18:34;16.38;;;12.85;;
21392;SDS011;10857;52.228;21.026;2022-10-16T16:21:01;19.10;;;12.80;;
21392;SDS011;10857;52.228;21.026;2022-10-16T16:23:28;19.85;;;13.10;;
21392;SDS011;10857;52.228;21.026;2022-10-16T16:28:40;19.88;;;13.10;;
21392;SDS011;10857;52.228;21.026;2022-10-16T16:31:08;18.00;;;12.95;;
21392;SDS011;10857;52.228;21.026;2022-10-16T16:33:35;20.98;;;14.20;;
21392;SDS011;10857;52.228;21.026;2022-10-16T16:36:04;23.23;;;15.05;;
21392;SDS011;10857;52.228;21.026;2022-10-16T16:38:39;21.75;;;14.27;;
21392;SDS011;10857;52.228;21.026;2022-10-16T16:41:16;20.70;;;14.13;;
21392;SDS011;10857;52.228;21.026;2022-10-16T16:43:46;21.88;;;14.73;;
21392;SDS011;10857;52.228;21.026;2022-10-16T16:46:14;21.73;;;13.95;;
21392;SDS011;10857;52.228;21.026;2022-10-16T16:48:41;21.40;;;13.93;;
21392;SDS011;10857;52.228;21.026;2022-10-16T16:51:12;24.75;;;14.70;;
21392;SDS011;10857;52.228;21.026;2022-10-16T16:53:42;21.52;;;14.73;;
21392;SDS011;10857;52.228;21.026;2022-10-16T16:56:10;19.88;;;14.57;;
21392;SDS011;10857;52.228;21.026;2022-10-16T16:58:37;19.30;;;13.77;;
21392;SDS011;10857;52.228;21.026;2022-10-16T17:01:05;19.60;;;14.40;;
21392;SDS011;10857;52.228;21.026;2022-10-16T17:03:49;20.15;;;14.38;;
21392;SDS011;10857;52.228;21.026;2022-10-16T17:06:24;20.48;;;14.85;;
21392;SDS011;10857;52.228;21.026;2022-10-16T17:08:53;24.67;;;14.80;;
21392;SDS011;10857;52.228;21.026;2022-10-16T17:11:21;19.65;;;14.35;;
21392;SDS011;10857;52.228;21.026;2022-10-16T17:17:26;21.02;;;15.90;;
21392;SDS011;10857;52.228;21.026;2022-10-16T17:19:54;24.35;;;17.83;;
21392;SDS011;10857;52.228;21.026;2022-10-16T17:22:21;24.15;;;16.75;;
21392;SDS011;10857;52.228;21.026;2022-10-16T17:24:48;24.35;;;17.85;;
21392;SDS011;10857;52.228;21.026;2022-10-16T17:27:20;23.83;;;15.98;;
21392;SDS011;10857;52.228;21.026;2022-10-16T17:29:50;23.10;;;15.00;;
21392;SDS011;10857;52.228;21.026;2022-10-16T17:32:17;24.25;;;16.17;;
21392;SDS011;10857;52.228;21.026;2022-10-16T17:34:46;20.42;;;15.02;;
21392;SDS011;10857;52.228;21.026;2022-10-16T17:37:13;21.80;;;15.48;;
21392;SDS011;10857;52.228;21.026;2022-10-16T17:39:43;22.27;;;16.15;;
21392;SDS011;10857;52.228;21.026;2022-10-16T17:42:10;21.92;;;15.15;;
21392;SDS011;10857;52.228;21.026;2022-10-16T17:44:37;21.88;;;15.52;;
21392;SDS011;10857;52.228;21.026;2022-10-16T17:47:04;22.77;;;16.00;;
21392;SDS011;10857;52.228;21.026;2022-10-16T17:49:31;23.98;;;16.08;;
21392;SDS011;10857;52.228;21.026;2022-10-16T17:51:58;22.65;;;16.42;;
21392;SDS011;10857;52.228;21.026;2022-10-16T17:54:28;25.13;;;16.88;;
21392;SDS011;10857;52.228;21.026;2022-10-16T17:56:55;22.52;;;16.08;;
21392;SDS011;10857;52.228;21.026;2022-10-16T17:59:22;26.73;;;16.00;;
21392;SDS011;10857;52.228;21.026;2022-10-16T18:01:49;23.98;;;15.95;;
21392;SDS011;10857;52.228;21.026;2022-10-16T18:04:16;26.27;;;16.98;;
21392;SDS011;10857;52.228;21.026;2022-10-16T18:06:44;26.13;;;17.73;;
21392;SDS011;10857;52.228;21.026;2022-10-16T18:09:13;23.02;;;17.63;;
21392;SDS011;10857;52.228;21.026;2022-10-16T18:11:43;27.83;;;17.17;;
21392;SDS011;10857;52.228;21.026;2022-10-16T18:14:11;25.90;;;17.77;;
21392;SDS011;10857;52.228;21.026;2022-10-16T18:16:40;23.83;;;17.33;;
21392;SDS011;10857;52.228;21.026;2022-10-16T18:19:08;29.92;;;17.70;;
21392;SDS011;10857;52.228;21.026;2022-10-16T18:21:36;27.45;;;17.80;;
21392;SDS011;10857;52.228;21.026;2022-10-16T18:24:03;23.15;;;17.25;;
21392;SDS011;10857;52.228;21.026;2022-10-16T18:26:30;26.98;;;16.83;;
21392;SDS011;10857;52.228;21.026;2022-10-16T18:28:58;24.50;;;17.38;;
21392;SDS011;10857;52.228;21.026;2022-10-16T18:31:26;25.23;;;16.85;;
21392;SDS011;10857;52.228;21.026;2022-10-16T18:33:53;26.02;;;17.23;;
21392;SDS011;10857;52.228;21.026;2022-10-16T18:36:22;26.58;;;17.45;;
21392;SDS011;10857;52.228;21.026;2022-10-16T18:38:51;25.67;;;17.52;;
21392;SDS011;10857;52.228;21.026;2022-10-16T18:41:19;26.13;;;17.23;;
21392;SDS011;10857;52.228;21.026;2022-10-16T18:43:47;27.55;;;17.20;;
21392;SDS011;10857;52.228;21.026;2022-10-16T18:46:15;25.63;;;17.58;;
21392;SDS011;10857;52.228;21.026;2022-10-16T18:48:44;25.58;;;18.13;;
21392;SDS011;10857;52.228;21.026;2022-10-16T18:51:16;29.17;;;17.77;;
21392;SDS011;10857;52.228;21.026;2022-10-16T18:53:47;26.20;;;17.70;;
21392;SDS011;10857;52.228;21.026;2022-10-16T18:56:17;25.98;;;17.45;;
21392;SDS011;10857;52.228;21.026;2022-10-16T18:58:45;28.77;;;18.55;;
21392;SDS011;10857;52.228;21.026;2022-10-16T19:01:15;31.88;;;18.80;;
21392;SDS011;10857;52.228;21.026;2022-10-16T19:03:57;29.50;;;19.33;;
21392;SDS011;10857;52.228;21.026;2022-10-16T19:06:26;27.92;;;19.33;;
21392;SDS011;10857;52.228;21.026;2022-10-16T19:08:54;28.73;;;19.10;;
21392;SDS011;10857;52.228;21.026;2022-10-16T19:11:23;33.42;;;20.92;;
21392;SDS011;10857;52.228;21.026;2022-10-16T19:13:51;27.67;;;19.50;;
21392;SDS011;10857;52.228;21.026;2022-10-16T19:16:26;28.40;;;19.80;;
21392;SDS011;10857;52.228;21.026;2022-10-16T19:18:55;31.25;;;20.33;;
21392;SDS011;10857;52.228;21.026;2022-10-16T19:21:24;28.98;;;19.88;;
21392;SDS011;10857;52.228;21.026;2022-10-16T19:23:56;32.72;;;20.00;;
21392;SDS011;10857;52.228;21.026;2022-10-16T19:26:25;28.92;;;19.88;;
21392;SDS011;10857;52.228;21.026;2022-10-16T19:28:54;27.88;;;19.65;;
21392;SDS011;10857;52.228;21.026;2022-10-16T19:31:25;27.10;;;18.80;;
21392;SDS011;10857;52.228;21.026;2022-10-16T19:33:54;27.88;;;19.55;;
21392;SDS011;10857;52.228;21.026;2022-10-16T19:36:26;28.85;;;19.77;;
21392;SDS011;10857;52.228;21.026;2022-10-16T19:38:56;27.42;;;19.52;;
21392;SDS011;10857;52.228;21.026;2022-10-16T19:41:25;27.30;;;19.98;;
21392;SDS011;10857;52.228;21.026;2022-10-16T19:43:53;28.52;;;20.10;;
21392;SDS011;10857;52.228;21.026;2022-10-16T19:46:21;29.48;;;20.25;;
21392;SDS011;10857;52.228;21.026;2022-10-16T19:48:56;30.95;;;20.77;;
21392;SDS011;10857;52.228;21.026;2022-10-16T19:51:26;29.77;;;20.25;;
21392;SDS011;10857;52.228;21.026;2022-10-16T19:53:55;31.10;;;20.00;;
21392;SDS011;10857;52.228;21.026;2022-10-16T19:56:24;31.90;;;19.85;;
21392;SDS011;10857;52.228;21.026;2022-10-16T19:58:53;30.60;;;20.33;;
21392;SDS011;10857;52.228;21.026;2022-10-16T20:01:22;35.30;;;20.50;;
21392;SDS011;10857;52.228;21.026;2022-10-16T20:03:51;29.42;;;19.88;;
21392;SDS011;10857;52.228;21.026;2022-10-16T20:06:19;28.10;;;19.63;;
21392;SDS011;10857;52.228;21.026;2022-10-16T20:08:46;27.40;;;20.13;;
21392;SDS011;10857;52.228;21.026;2022-10-16T20:11:21;29.45;;;20.20;;
21392;SDS011;10857;52.228;21.026;2022-10-16T20:13:53;32.70;;;19.75;;
21392;SDS011;10857;52.228;21.026;2022-10-16T20:16:20;27.17;;;19.52;;
21392;SDS011;10857;52.228;21.026;2022-10-16T20:18:48;28.10;;;19.27;;
21392;SDS011;10857;52.228;21.026;2022-10-16T20:21:23;30.77;;;19.55;;
21392;SDS011;10857;52.228;21.026;2022-10-16T20:23:51;27.50;;;20.58;;
21392;SDS011;10857;52.228;21.026;2022-10-16T20:26:19;31.77;;;21.05;;
21392;SDS011;10857;52.228;21.026;2022-10-16T20:28:49;30.63;;;20.23;;
21392;SDS011;10857;52.228;21.026;2022-10-16T20:31:18;31.27;;;20.42;;
21392;SDS011;10857;52.228;21.026;2022-10-16T20:33:50;28.88;;;20.80;;
21392;SDS011;10857;52.228;21.026;2022-10-16T20:36:20;29.55;;;19.92;;
21392;SDS011;10857;52.228;21.026;2022-10-16T20:38:48;29.30;;;20.92;;
21392;SDS011;10857;52.228;21.026;2022-10-16T20:41:15;31.33;;;21.13;;
21392;SDS011;10857;52.228;21.026;2022-10-16T20:43:45;28.75;;;19.55;;
21392;SDS011;10857;52.228;21.026;2022-10-16T20:46:14;28.95;;;20.30;;
21392;SDS011;10857;52.228;21.026;2022-10-16T20:48:45;30.88;;;20.85;;
21392;SDS011;10857;52.228;21.026;2022-10-16T20:51:14;29.75;;;20.60;;
21392;SDS011;10857;52.228;21.026;2022-10-16T20:53:43;30.50;;;20.05;;
21392;SDS011;10857;52.228;21.026;2022-10-16T20:56:14;31.40;;;20.73;;
21392;SDS011;10857;52.228;21.026;2022-10-16T20:58:43;28.17;;;20.90;;
21392;SDS011;10857;52.228;21.026;2022-10-16T21:01:28;31.80;;;21.08;;
21392;SDS011;10857;52.228;21.026;2022-10-16T21:03:58;30.92;;;20.83;;
21392;SDS011;10857;52.228;21.026;2022-10-16T21:06:27;31.70;;;20.20;;
21392;SDS011;10857;52.228;21.026;2022-10-16T21:08:56;28.33;;;20.67;;
21392;SDS011;10857;52.228;21.026;2022-10-16T21:11:28;27.27;;;19.90;;
21392;SDS011;10857;52.228;21.026;2022-10-16T21:13:58;32.92;;;21.27;;
21392;SDS011;10857;52.228;21.026;2022-10-16T21:16:27;30.08;;;20.35;;
21392;SDS011;10857;52.228;21.026;2022-10-16T21:18:56;28.75;;;20.35;;
21392;SDS011;10857;52.228;21.026;2022-10-16T21:21:24;28.40;;;20.15;;
21392;SDS011;10857;52.228;21.026;2022-10-16T21:23:54;29.25;;;20.25;;
21392;SDS011;10857;52.228;21.026;2022-10-16T21:26:22;29.05;;;21.20;;
21392;SDS011;10857;52.228;21.026;2022-10-16T21:28:57;30.95;;;20.75;;
21392;SDS011;10857;52.228;21.026;2022-10-16T21:31:26;30.50;;;21.55;;
21392;SDS011;10857;52.228;21.026;2022-10-16T21:33:54;32.25;;;20.13;;
21392;SDS011;10857;52.228;21.026;2022-10-16T21:36:22;29.58;;;20.67;;
21392;SDS011;10857;52.228;21.026;2022-10-16T21:38:51;33.22;;;20.90;;
21392;SDS011;10857;52.228;21.026;2022-10-16T21:41:23;30.27;;;20.73;;
21392;SDS011;10857;52.228;21.026;2022-10-16T21:43:52;29.23;;;20.80;;
21392;SDS011;10857;52.228;21.026;2022-10-16T21:46:21;29.73;;;20.80;;
21392;SDS011;10857;52.228;21.026;2022-10-16T21:48:52;35.15;;;20.65;;
21392;SDS011;10857;52.228;21.026;2022-10-16T21:51:27;31.85;;;20.83;;
21392;SDS011;10857;52.228;21.026;2022-10-16T21:53:59;33.15;;;21.33;;
21392;SDS011;10857;52.228;21.026;2022-10-16T21:56:27;35.00;;;21.40;;
21392;SDS011;10857;52.228;21.026;2022-10-16T21:58:54;30.20;;;21.60;;
21392;SDS011;10857;52.228;21.026;2022-10-16T22:01:22;31.67;;;21.65;;
21392;SDS011;10857;52.228;21.026;2022-10-16T22:03:50;30.65;;;21.55;;
21392;SDS011;10857;52.228;21.026;2022-10-16T22:06:18;30.77;;;21.38;;
21392;SDS011;10857;52.228;21.026;2022-10-16T22:08:53;30.27;;;21.77;;
21392;SDS011;10857;52.228;21.026;2022-10-16T22:11:22;35.85;;;24.60;;
21392;SDS011;10857;52.228;21.026;2022-10-16T22:14:07;33.60;;;21.73;;
21392;SDS011;10857;52.228;21.026;2022-10-16T22:16:39;31.10;;;21.50;;
21392;SDS011;10857;52.228;21.026;2022-10-16T22:19:07;32.90;;;21.40;;
21392;SDS011;10857;52.228;21.026;2022-10-16T22:21:35;31.40;;;21.23;;
21392;SDS011;10857;52.228;21.026;2022-10-16T22:24:04;33.33;;;22.02;;
21392;SDS011;10857;52.228;21.026;2022-10-16T22:26:32;31.65;;;22.23;;
21392;SDS011;10857;52.228;21.026;2022-10-16T22:28:59;30.20;;;21.13;;
21392;SDS011;10857;52.228;21.026;2022-10-16T22:31:26;33.17;;;22.55;;
